Time;durP1;ratioP1;P1;durP2;ratioP2;P2;SDS_P1;SDS_P2;PMS_P1;PMS_P2;Temp;Humidity;BMP_temperature;BMP_pressure;BME280_temperature;BME280_humidity;BME280_pressure;Samples;Min_cycle;Max_cycle;Signal;HPM_P1;HPM_P2
2022/05/04 00:01:18;;;;;;;13.67;12.27;;;13.90;97.80;;;;;;5011470;28;20197;-67
2022/05/04 00:03:44;;;;;;;13.23;12.03;;;13.80;97.90;;;;;;5012458;28;20634;-67
2022/05/04 00:06:10;;;;;;;14.63;13.20;;;13.80;98.00;;;;;;5010682;28;20905;-67
2022/05/04 00:08:37;;;;;;;16.40;13.33;;;13.80;97.90;;;;;;5011792;28;20233;-67
2022/05/04 00:11:04;;;;;;;14.70;13.17;;;13.70;98.00;;;;;;5010599;28;20456;-67
2022/05/04 00:13:31;;;;;;;15.87;14.20;;;13.70;98.10;;;;;;5011949;28;20436;-67
2022/05/04 00:15:57;;;;;;;16.67;13.20;;;13.60;98.60;;;;;;5011498;28;20920;-67
2022/05/04 00:18:23;;;;;;;14.20;12.70;;;13.60;98.40;;;;;;5012803;28;20412;-67
2022/05/04 00:20:48;;;;;;;14.50;13.10;;;13.60;98.40;;;;;;5012522;28;21083;-67
2022/05/04 00:23:14;;;;;;;13.73;12.33;;;13.50;98.40;;;;;;5011682;28;20261;-67
2022/05/04 00:25:40;;;;;;;14.80;12.40;;;13.50;98.50;;;;;;5012155;28;20186;-67
2022/05/04 00:28:06;;;;;;;13.27;11.97;;;13.50;98.50;;;;;;5011051;28;20447;-67
2022/05/04 00:30:32;;;;;;;14.37;12.63;;;13.40;98.50;;;;;;5011229;28;20220;-67
2022/05/04 00:32:59;;;;;;;14.60;12.70;;;13.40;98.50;;;;;;5011667;28;20178;-67
2022/05/04 00:35:24;;;;;;;13.63;12.07;;;13.40;98.20;;;;;;5012337;28;20417;-67
2022/05/04 00:37:50;;;;;;;13.40;12.00;;;13.40;98.30;;;;;;5012142;28;20420;-67
2022/05/04 00:40:16;;;;;;;15.97;13.90;;;13.30;98.40;;;;;;5011450;28;20198;-67
2022/05/04 00:42:41;;;;;;;14.27;12.87;;;13.30;98.70;;;;;;5010437;28;20600;-67
2022/05/04 00:45:07;;;;;;;13.67;12.37;;;13.30;98.80;;;;;;5027063;28;20193;-67
2022/05/04 00:47:33;;;;;;;13.77;11.53;;;13.30;98.90;;;;;;4994799;28;20535;-67
2022/05/04 00:50:04;;;;;;;13.40;11.30;;;13.20;98.80;;;;;;5011500;28;20466;-68
2022/05/04 00:52:34;;;;;;;16.47;12.37;;;13.20;98.80;;;;;;5012340;28;20198;-67
2022/05/04 00:55:02;;;;;;;14.07;12.67;;;13.20;98.60;;;;;;5011490;28;20461;-67
2022/05/04 01:00:14;;;;;;;14.80;12.47;;;13.10;98.60;;;;;;5009792;28;20462;-67
2022/05/04 01:02:41;;;;;;;17.27;12.20;;;13.10;98.80;;;;;;5010896;28;20454;-68
2022/05/04 01:05:10;;;;;;;15.10;13.37;;;13.10;98.90;;;;;;5011255;28;20429;-67
2022/05/04 01:07:38;;;;;;;13.10;11.80;;;13.00;99.10;;;;;;5012054;28;20427;-69
2022/05/04 01:10:05;;;;;;;13.60;11.93;;;13.00;99.10;;;;;;5010000;28;20866;-69
2022/05/04 01:12:35;;;;;;;14.80;12.40;;;13.00;98.80;;;;;;5014252;28;20507;-67
2022/05/04 01:15:03;;;;;;;17.17;12.07;;;13.00;98.90;;;;;;5013836;28;20454;-67
2022/05/04 01:17:28;;;;;;;14.83;12.43;;;12.90;99.00;;;;;;5015016;28;20473;-67
2022/05/04 01:19:57;;;;;;;14.83;13.27;;;12.90;99.10;;;;;;5014206;28;20511;-67
2022/05/04 01:22:24;;;;;;;13.63;12.10;;;12.80;99.10;;;;;;5014527;28;20184;-67
2022/05/04 01:24:50;;;;;;;17.50;12.47;;;12.80;99.10;;;;;;5015451;28;20428;-67
2022/05/04 01:27:17;;;;;;;18.90;12.40;;;12.70;99.40;;;;;;5014394;28;20774;-67
2022/05/04 01:29:42;;;;;;;15.40;12.70;;;12.70;99.60;;;;;;5015186;28;20441;-67
2022/05/04 01:32:08;;;;;;;14.30;12.20;;;12.70;99.70;;;;;;5013343;28;20422;-67
2022/05/04 01:34:34;;;;;;;15.20;12.97;;;12.70;99.60;;;;;;5014107;28;20191;-67
2022/05/04 01:37:01;;;;;;;14.30;12.70;;;12.70;99.70;;;;;;5013545;28;20434;-75
2022/05/04 01:39:27;;;;;;;14.47;12.60;;;12.70;99.90;;;;;;5015445;28;20211;-67
2022/05/04 01:44:54;;;;;;;15.10;13.00;;;12.70;99.70;;;;;;4993190;28;20188;-67
2022/05/04 01:47:19;;;;;;;13.23;11.80;;;12.70;99.60;;;;;;5008645;28;20438;-67
2022/05/04 01:49:45;;;;;;;14.27;12.77;;;12.70;99.50;;;;;;5014627;28;20237;-69
2022/05/04 01:52:11;;;;;;;13.67;11.57;;;12.70;99.40;;;;;;5013345;28;20190;-67
2022/05/04 01:54:36;;;;;;;13.43;11.87;;;12.60;99.30;;;;;;5014705;28;20179;-67
2022/05/04 01:57:02;;;;;;;13.20;11.70;;;12.70;99.20;;;;;;5013602;28;20272;-69
2022/05/04 01:59:28;;;;;;;12.30;10.93;;;12.60;99.30;;;;;;5014486;28;20206;-67
2022/05/04 02:01:54;;;;;;;13.77;12.37;;;12.60;99.70;;;;;;5015099;28;20430;-67
2022/05/04 02:04:22;;;;;;;14.73;12.20;;;12.50;99.40;;;;;;5013670;28;20190;-67
2022/05/04 02:06:48;;;;;;;14.47;12.53;;;12.60;99.50;;;;;;5014558;28;20446;-68
2022/05/04 02:09:15;;;;;;;13.40;12.10;;;12.60;99.70;;;;;;5013843;28;20421;-69
2022/05/04 02:11:40;;;;;;;13.50;12.10;;;12.50;99.60;;;;;;5013884;28;20430;-67
2022/05/04 02:14:06;;;;;;;13.40;12.00;;;12.50;99.70;;;;;;5013593;28;20870;-67
2022/05/04 02:16:32;;;;;;;17.10;12.97;;;12.50;99.70;;;;;;5014316;28;20182;-67
2022/05/04 02:18:58;;;;;;;17.10;15.17;;;12.40;99.60;;;;;;5013759;28;20207;-68
2022/05/04 02:21:24;;;;;;;16.30;14.30;;;12.40;99.90;;;;;;5013735;28;20427;-67
2022/05/04 02:23:51;;;;;;;16.00;13.70;;;12.40;99.90;;;;;;5014471;28;20431;-69
2022/05/04 02:26:16;;;;;;;17.50;13.73;;;12.40;99.90;;;;;;5013590;28;20418;-69
2022/05/04 02:28:43;;;;;;;15.83;14.10;;;12.40;99.90;;;;;;5014275;28;20817;-68
2022/05/04 02:31:09;;;;;;;18.13;13.60;;;12.40;99.90;;;;;;5012412;28;20538;-69
2022/05/04 02:33:35;;;;;;;17.80;14.60;;;12.40;99.90;;;;;;5014381;28;20406;-69
2022/05/04 02:38:45;;;;;;;16.87;14.30;;;12.30;99.90;;;;;;5013531;28;20441;-67
2022/05/04 02:41:11;;;;;;;18.30;15.30;;;12.30;99.90;;;;;;5013008;28;20424;-67
2022/05/04 02:43:37;;;;;;;18.40;15.00;;;12.30;99.90;;;;;;5011810;28;20190;-67
2022/05/04 02:46:16;;;;;;;15.30;13.70;;;12.20;99.90;;;;;;5012404;28;20278;-75
2022/05/04 02:48:42;;;;;;;23.00;14.47;;;12.20;99.90;;;;;;5014037;28;20238;-68
2022/05/04 02:51:08;;;;;;;16.43;14.40;;;12.20;99.90;;;;;;5012324;28;20465;-67
2022/05/04 02:53:34;;;;;;;19.80;14.53;;;12.10;99.90;;;;;;5013692;28;20935;-66
2022/05/04 02:56:01;;;;;;;18.53;14.80;;;12.00;99.90;;;;;;5013612;28;20907;-67
2022/05/04 02:58:27;;;;;;;15.27;13.73;;;12.00;99.90;;;;;;5013183;28;20424;-67
2022/05/04 03:00:53;;;;;;;16.87;14.50;;;12.00;99.90;;;;;;5013351;28;20465;-67
2022/05/04 03:03:18;;;;;;;17.13;13.57;;;12.00;99.90;;;;;;5012880;28;20418;-67
2022/05/04 03:05:44;;;;;;;18.50;13.83;;;12.00;99.90;;;;;;5013609;28;20184;-67
2022/05/04 03:08:10;;;;;;;16.77;13.40;;;12.00;99.90;;;;;;5012828;28;20175;-67
2022/05/04 03:11:54;;;;;;;18.23;14.83;;;12.00;99.90;;;;;;5012852;28;20243;-71
2022/05/04 03:13:22;;;;;;;18.53;14.80;;;11.90;99.70;;;;;;5008840;28;20193;-67
2022/05/04 03:15:47;;;;;;;17.17;15.37;;;11.90;99.90;;;;;;5012538;28;20453;-67
2022/05/04 03:18:14;;;;;;;15.10;13.60;;;11.80;99.60;;;;;;5012203;28;20473;-69
2022/05/04 03:20:39;;;;;;;16.30;13.57;;;11.80;99.90;;;;;;5012595;28;20324;-67
2022/05/04 03:23:05;;;;;;;20.00;14.53;;;11.80;99.90;;;;;;5012797;28;20878;-75
2022/05/04 03:25:31;;;;;;;15.80;13.70;;;11.70;99.90;;;;;;5011756;28;20578;-67
2022/05/04 03:27:56;;;;;;;18.73;15.80;;;11.70;99.90;;;;;;5012404;28;20190;-67
2022/05/04 03:30:22;;;;;;;17.10;14.80;;;11.70;99.90;;;;;;5011101;28;20185;-67
2022/05/04 03:32:47;;;;;;;18.43;14.03;;;11.60;99.90;;;;;;5010246;28;20236;-67
2022/05/04 03:35:13;;;;;;;16.53;14.30;;;11.60;99.90;;;;;;5011997;28;20519;-68
2022/05/04 03:37:39;;;;;;;18.03;14.83;;;11.60;99.90;;;;;;5011810;28;20183;-67
2022/05/04 03:40:05;;;;;;;17.10;15.30;;;11.60;99.90;;;;;;5012000;28;20211;-75
2022/05/04 03:42:31;;;;;;;17.37;14.00;;;11.60;99.90;;;;;;5011960;28;20190;-68
2022/05/04 03:44:57;;;;;;;22.00;14.60;;;11.60;99.90;;;;;;5011640;28;20908;-69
2022/05/04 03:47:23;;;;;;;15.57;13.93;;;11.60;99.90;;;;;;5011968;28;20185;-67
2022/05/04 03:49:48;;;;;;;17.33;14.37;;;11.60;99.90;;;;;;5013192;28;20468;-67
2022/05/04 03:52:14;;;;;;;18.13;14.87;;;11.60;99.90;;;;;;5010581;28;20295;-67
2022/05/04 03:54:40;;;;;;;18.50;15.13;;;11.60;99.90;;;;;;4995405;28;20190;-67
2022/05/04 03:57:06;;;;;;;17.30;13.30;;;11.60;99.90;;;;;;5012053;28;20215;-75
2022/05/04 03:59:31;;;;;;;16.43;14.67;;;11.60;99.90;;;;;;5012446;28;20238;-68
2022/05/04 04:01:58;;;;;;;21.50;15.70;;;11.60;99.90;;;;;;5012766;28;20472;-68
2022/05/04 04:04:23;;;;;;;17.77;14.53;;;11.60;99.90;;;;;;5011630;28;20175;-69
2022/05/04 04:06:49;;;;;;;21.60;15.70;;;11.60;99.90;;;;;;5011531;28;20436;-67
2022/05/04 04:09:16;;;;;;;17.60;14.97;;;11.50;99.90;;;;;;5010622;28;20586;-68
2022/05/04 04:11:42;;;;;;;17.53;14.10;;;11.60;99.90;;;;;;5011215;28;20190;-67
2022/05/04 04:14:09;;;;;;;15.93;14.23;;;11.50;99.90;;;;;;5011695;28;20914;-76
2022/05/04 04:16:35;;;;;;;16.63;14.40;;;11.50;99.90;;;;;;5010023;28;20429;-69
2022/05/04 04:19:01;;;;;;;17.03;14.50;;;11.50;99.90;;;;;;5011792;28;20477;-69
2022/05/04 04:24:11;;;;;;;17.80;15.53;;;11.40;99.90;;;;;;5010804;28;20209;-70
2022/05/04 04:26:38;;;;;;;16.87;14.70;;;11.40;99.90;;;;;;5011581;28;20437;-68
2022/05/04 04:29:04;;;;;;;21.00;14.93;;;11.40;99.90;;;;;;5012367;28;20417;-69
2022/05/04 04:31:30;;;;;;;29.33;15.73;;;11.40;99.90;;;;;;5010617;28;20537;-69
2022/05/04 04:33:56;;;;;;;17.83;13.90;;;11.40;99.90;;;;;;5011267;28;20424;-69
2022/05/04 04:36:22;;;;;;;17.87;15.63;;;11.40;99.90;;;;;;5011266;28;20422;-69
2022/05/04 04:38:48;;;;;;;15.70;14.10;;;11.20;99.90;;;;;;5010915;28;20529;-69
2022/05/04 04:41:14;;;;;;;17.50;14.30;;;11.20;99.90;;;;;;5011511;28;20635;-69
2022/05/04 04:43:39;;;;;;;16.73;14.37;;;11.30;99.90;;;;;;5010694;28;20248;-69
2022/05/04 04:46:05;;;;;;;18.50;14.67;;;11.30;99.90;;;;;;5013642;28;20270;-69
2022/05/04 04:48:31;;;;;;;20.60;15.30;;;11.40;99.90;;;;;;5015330;28;20488;-69
2022/05/04 04:50:56;;;;;;;18.93;16.03;;;11.40;99.90;;;;;;5015428;28;20271;-70
2022/05/04 04:53:22;;;;;;;19.80;15.07;;;11.40;99.90;;;;;;5015233;28;20192;-69
2022/05/04 04:55:48;;;;;;;17.90;15.37;;;11.40;99.90;;;;;;5016053;28;20234;-69
2022/05/04 04:58:14;;;;;;;17.17;15.20;;;11.40;99.90;;;;;;5015260;28;20179;-69
2022/05/04 05:00:40;;;;;;;21.50;15.60;;;11.50;99.90;;;;;;5013593;28;20238;-69
2022/05/04 05:03:06;;;;;;;17.37;14.40;;;11.50;99.90;;;;;;5016098;28;20943;-69
2022/05/04 05:05:32;;;;;;;18.20;15.27;;;11.60;99.90;;;;;;5015074;28;20176;-69
2022/05/04 05:07:58;;;;;;;19.60;16.87;;;11.60;99.90;;;;;;5015408;28;20421;-69
2022/05/04 05:10:24;;;;;;;17.73;15.00;;;11.70;99.90;;;;;;5015011;28;20449;-69
2022/05/04 05:12:51;;;;;;;16.27;14.43;;;11.70;99.90;;;;;;5015803;28;20171;-69
2022/05/04 05:18:03;;;;;;;22.37;15.40;;;11.70;99.90;;;;;;5014327;28;20453;-69
2022/05/04 05:20:30;;;;;;;17.80;15.23;;;11.80;99.90;;;;;;5014683;28;20544;-69
2022/05/04 05:22:57;;;;;;;16.63;14.60;;;11.80;99.90;;;;;;5015599;28;20421;-69
2022/05/04 05:25:23;;;;;;;21.33;15.33;;;11.80;99.90;;;;;;5014581;28;20417;-69
2022/05/04 05:27:48;;;;;;;21.43;16.27;;;11.80;99.90;;;;;;5015713;28;20504;-69
2022/05/04 05:30:14;;;;;;;20.30;15.30;;;11.80;99.90;;;;;;5014500;28;20184;-75
2022/05/04 05:32:40;;;;;;;20.63;13.83;;;11.90;99.90;;;;;;5014471;28;20183;-69
2022/05/04 05:35:06;;;;;;;21.07;13.73;;;11.90;99.90;;;;;;5015172;28;20309;-69
2022/05/04 05:37:32;;;;;;;18.80;15.30;;;12.00;99.90;;;;;;5014426;28;20252;-69
2022/05/04 05:39:58;;;;;;;17.50;14.83;;;12.00;99.90;;;;;;5015155;28;20858;-69
2022/05/04 05:42:24;;;;;;;18.47;13.80;;;12.00;99.90;;;;;;5013411;28;20207;-70
2022/05/04 05:44:49;;;;;;;19.23;15.03;;;12.00;99.90;;;;;;5015148;28;20167;-70
2022/05/04 05:47:15;;;;;;;19.43;15.00;;;12.00;99.90;;;;;;5013934;28;20178;-76
2022/05/04 05:49:41;;;;;;;15.50;13.60;;;12.00;99.90;;;;;;5012536;28;20266;-70
2022/05/04 05:52:08;;;;;;;15.83;13.47;;;12.00;99.90;;;;;;5014796;28;20430;-70
2022/05/04 05:54:34;;;;;;;18.50;14.20;;;12.10;99.90;;;;;;5014248;28;20184;-70
2022/05/04 05:57:00;;;;;;;18.50;14.20;;;12.10;99.90;;;;;;5012752;28;20430;-70
2022/05/04 05:59:25;;;;;;;16.57;12.97;;;12.10;99.90;;;;;;5014254;28;20815;-70
2022/05/04 06:01:51;;;;;;;18.97;16.07;;;12.10;99.90;;;;;;5012446;28;20219;-70
2022/05/04 06:04:17;;;;;;;15.57;13.83;;;12.10;99.90;;;;;;5013926;28;20187;-74
2022/05/04 06:06:43;;;;;;;21.77;14.47;;;12.10;99.90;;;;;;5014916;28;20174;-73
2022/05/04 06:09:08;;;;;;;18.23;14.13;;;12.10;99.90;;;;;;5015372;28;20197;-74
2022/05/04 06:11:35;;;;;;;21.97;15.87;;;12.20;99.90;;;;;;5013726;28;20262;-74
2022/05/04 06:14:01;;;;;;;19.37;13.27;;;12.20;99.90;;;;;;5013813;28;20210;-70
2022/05/04 06:16:27;;;;;;;17.73;13.20;;;12.20;99.90;;;;;;5012234;28;20468;-69
2022/05/04 06:18:53;;;;;;;15.23;12.70;;;12.30;99.90;;;;;;5015004;28;20185;-69
2022/05/04 06:21:19;;;;;;;14.00;12.60;;;12.30;99.90;;;;;;5014222;28;20453;-69
2022/05/04 06:23:45;;;;;;;16.50;12.90;;;12.40;99.90;;;;;;5013318;28;20950;-71
2022/05/04 06:26:11;;;;;;;19.43;13.53;;;12.30;99.90;;;;;;5013944;28;20186;-69
2022/05/04 06:28:36;;;;;;;16.03;12.10;;;12.30;99.90;;;;;;5013850;28;20429;-70
2022/05/04 06:36:30;;;;;;;15.80;13.47;;;12.40;99.90;;;;;;5014120;28;20402;-69
2022/05/04 06:38:56;;;;;;;13.13;11.73;;;12.40;99.90;;;;;;5013360;28;20925;-69
2022/05/04 06:41:22;;;;;;;14.80;12.70;;;12.30;99.90;;;;;;5012696;28;20190;-69
2022/05/04 06:43:48;;;;;;;18.73;13.40;;;12.40;99.90;;;;;;5013845;28;20428;-70
2022/05/04 06:46:15;;;;;;;18.70;13.00;;;12.30;99.90;;;;;;5013601;28;20437;-70
2022/05/04 06:48:41;;;;;;;14.53;13.03;;;12.40;99.90;;;;;;5012236;28;20218;-72
2022/05/04 06:51:07;;;;;;;14.70;12.97;;;12.40;99.90;;;;;;5013878;28;20476;-69
2022/05/04 06:53:34;;;;;;;19.50;14.57;;;12.30;99.90;;;;;;5012611;28;20940;-69
2022/05/04 06:56:00;;;;;;;19.00;13.80;;;12.40;99.90;;;;;;5011781;28;20430;-69
2022/05/04 06:58:26;;;;;;;18.40;15.47;;;12.40;99.90;;;;;;5012748;28;20433;-69
2022/05/04 07:00:52;;;;;;;18.17;14.20;;;12.50;99.90;;;;;;5013622;28;20460;-70
2022/05/04 07:03:17;;;;;;;21.53;14.13;;;12.60;99.90;;;;;;5012916;28;20187;-76
2022/05/04 07:05:44;;;;;;;18.43;14.87;;;12.70;99.90;;;;;;5013047;28;20179;-70
2022/05/04 07:08:09;;;;;;;21.53;14.70;;;12.70;99.90;;;;;;5011183;28;20286;-69
2022/05/04 07:10:35;;;;;;;17.60;15.87;;;12.80;99.90;;;;;;5012480;28;20932;-69
2022/05/04 07:13:01;;;;;;;18.50;15.40;;;13.00;99.90;;;;;;5013437;28;20237;-70
2022/05/04 07:15:27;;;;;;;19.10;15.33;;;13.10;99.90;;;;;;5011303;28;20176;-70
2022/05/04 07:17:52;;;;;;;19.77;15.67;;;13.30;99.90;;;;;;5012970;28;20175;-69
2022/05/04 07:20:18;;;;;;;19.93;16.03;;;13.30;99.90;;;;;;5011585;28;20285;-76
2022/05/04 07:22:44;;;;;;;20.73;15.27;;;13.40;99.90;;;;;;5011785;28;20199;-70
2022/05/04 07:25:10;;;;;;;21.27;14.90;;;13.40;99.90;;;;;;5011995;28;20185;-69
2022/05/04 07:27:36;;;;;;;18.67;14.07;;;13.50;99.90;;;;;;5012975;28;20185;-70
2022/05/04 07:30:02;;;;;;;18.70;16.70;;;13.50;99.30;;;;;;5011587;28;20939;-69
2022/05/04 07:32:28;;;;;;;21.10;15.57;;;13.60;99.20;;;;;;5012150;28;20436;-69
2022/05/04 07:34:54;;;;;;;19.93;16.17;;;13.80;99.90;;;;;;5011933;28;21046;-71
2022/05/04 07:37:19;;;;;;;19.70;15.83;;;13.80;99.90;;;;;;4996382;28;20224;-70
2022/05/04 07:42:29;;;;;;;17.87;15.83;;;14.10;99.60;;;;;;5010532;28;20214;-70
2022/05/04 07:45:07;;;;;;;17.93;14.50;;;14.10;99.30;;;;;;5012248;28;20456;-70
2022/05/04 07:47:35;;;;;;;18.60;14.20;;;14.20;99.60;;;;;;5012306;28;20229;-70
2022/05/04 07:50:03;;;;;;;16.07;14.30;;;14.30;99.70;;;;;;5011597;28;20479;-70
2022/05/04 07:52:28;;;;;;;18.40;13.30;;;14.50;99.90;;;;;;5012357;28;20474;-69
2022/05/04 07:54:54;;;;;;;14.30;12.80;;;14.60;99.80;;;;;;5013307;28;20410;-69
2022/05/04 07:57:20;;;;;;;16.07;13.20;;;14.70;99.80;;;;;;5012066;28;20258;-70
2022/05/04 08:05:16;;;;;;;15.10;13.50;;;15.20;98.40;;;;;;5012684;28;20409;-69
2022/05/04 08:07:41;;;;;;;14.40;12.93;;;15.30;97.50;;;;;;5012383;28;20420;-69
2022/05/04 08:10:07;;;;;;;14.37;12.20;;;15.40;96.90;;;;;;5004903;28;20541;-69
2022/05/04 08:12:33;;;;;;;14.10;12.60;;;15.50;97.30;;;;;;5011848;28;20641;-70
2022/05/04 08:14:59;;;;;;;14.97;13.00;;;15.60;97.00;;;;;;5011604;28;20439;-69
2022/05/04 08:17:25;;;;;;;15.30;13.70;;;15.70;96.60;;;;;;5011427;28;20175;-70
2022/05/04 08:19:51;;;;;;;14.87;13.30;;;15.70;97.00;;;;;;5011158;28;20478;-69
2022/05/04 08:22:20;;;;;;;14.27;12.87;;;15.80;95.50;;;;;;5011034;28;20566;-69
2022/05/04 08:24:46;;;;;;;14.00;12.27;;;15.80;94.60;;;;;;5013168;28;20437;-69
2022/05/04 08:27:11;;;;;;;19.03;13.53;;;15.80;95.60;;;;;;5012799;28;20446;-69
2022/05/04 08:29:37;;;;;;;15.20;13.33;;;15.80;95.30;;;;;;5010803;28;20543;-69
2022/05/04 08:32:03;;;;;;;19.43;14.10;;;15.80;95.90;;;;;;5010859;28;20189;-69
2022/05/04 08:34:29;;;;;;;13.43;11.90;;;15.80;95.90;;;;;;5010070;28;20668;-70
2022/05/04 08:36:55;;;;;;;15.47;13.00;;;15.70;95.60;;;;;;5011297;28;20496;-70
2022/05/04 08:39:20;;;;;;;14.07;12.33;;;15.80;96.00;;;;;;4992389;28;20203;-69
2022/05/04 08:41:46;;;;;;;19.10;13.43;;;15.90;96.00;;;;;;4998344;28;20633;-69
2022/05/04 08:44:12;;;;;;;19.83;13.03;;;16.10;96.40;;;;;;5012057;28;20178;-69
2022/05/04 08:46:40;;;;;;;20.17;14.60;;;16.20;95.70;;;;;;5010573;28;20238;-69
2022/05/04 08:49:07;;;;;;;16.50;13.50;;;16.40;96.10;;;;;;5012009;28;21015;-70
2022/05/04 08:51:35;;;;;;;16.70;13.70;;;16.50;95.30;;;;;;4990095;28;20439;-69
2022/05/04 08:54:02;;;;;;;15.20;13.60;;;16.70;95.40;;;;;;5003058;28;20429;-69
2022/05/04 08:56:27;;;;;;;15.30;13.80;;;16.90;94.30;;;;;;5010022;28;20475;-70
2022/05/04 08:58:53;;;;;;;15.67;14.10;;;17.10;94.40;;;;;;4993479;28;20469;-70
2022/05/04 09:01:19;;;;;;;16.47;14.70;;;17.20;93.70;;;;;;5011654;28;20537;-69
2022/05/04 09:03:45;;;;;;;16.17;14.50;;;17.40;94.00;;;;;;5011281;28;20179;-70
2022/05/04 09:06:10;;;;;;;18.67;14.93;;;17.50;94.40;;;;;;5011874;28;20175;-70
2022/05/04 09:09:04;;;;;;;15.20;13.70;;;17.80;93.90;;;;;;5009376;28;20543;-69
2022/05/04 09:11:32;;;;;;;16.40;14.67;;;17.90;93.50;;;;;;5005397;28;20183;-70
2022/05/04 09:13:58;;;;;;;17.20;14.73;;;18.10;92.40;;;;;;5010585;28;20552;-69
2022/05/04 09:16:32;;;;;;;15.83;14.07;;;18.30;93.40;;;;;;5010871;28;20460;-75
2022/05/04 09:19:05;;;;;;;18.73;14.13;;;18.40;92.50;;;;;;5009432;28;20191;-70
2022/05/04 09:21:32;;;;;;;16.97;15.10;;;18.60;92.90;;;;;;5009405;28;20449;-69
2022/05/04 09:23:58;;;;;;;17.17;15.33;;;18.80;92.40;;;;;;5011383;28;20434;-68
2022/05/04 09:26:24;;;;;;;18.10;14.80;;;19.00;92.30;;;;;;5011400;28;20437;-71
2022/05/04 09:28:51;;;;;;;18.70;15.17;;;19.10;92.90;;;;;;5009637;28;20461;-71
2022/05/04 09:31:22;;;;;;;16.60;14.63;;;19.30;92.80;;;;;;5021035;28;20424;-71
2022/05/04 09:34:02;;;;;;;18.27;15.30;;;19.40;90.60;;;;;;5014289;28;20535;-71
2022/05/04 09:36:33;;;;;;;16.30;14.47;;;19.60;90.50;;;;;;5013850;28;20433;-71
2022/05/04 09:44:57;;;;;;;19.23;14.10;;;20.10;89.00;;;;;;5015047;28;20860;-68
2022/05/04 09:47:22;;;;;;;19.17;15.57;;;20.20;87.20;;;;;;5015185;28;20422;-68
2022/05/04 09:49:49;;;;;;;17.00;14.43;;;20.40;87.80;;;;;;5014424;28;21012;-68
2022/05/04 09:52:20;;;;;;;16.83;14.20;;;20.50;87.40;;;;;;5015583;28;20198;-68
2022/05/04 09:54:46;;;;;;;16.30;14.60;;;20.40;87.20;;;;;;5012690;28;20456;-68
2022/05/04 09:57:12;;;;;;;17.03;14.90;;;20.50;85.80;;;;;;5013691;28;20906;-68
2022/05/04 09:59:38;;;;;;;16.70;14.93;;;20.40;85.70;;;;;;5013907;28;20656;-70
2022/05/04 10:02:09;;;;;;;17.30;15.27;;;20.30;84.40;;;;;;5015018;28;20450;-70
2022/05/04 10:04:36;;;;;;;16.60;14.80;;;20.30;86.70;;;;;;5014679;28;20175;-69
2022/05/04 10:07:03;;;;;;;18.10;14.93;;;20.40;87.60;;;;;;5014823;28;20422;-69
2022/05/04 10:09:30;;;;;;;19.33;15.50;;;20.40;86.40;;;;;;5014532;28;20422;-70
2022/05/04 10:11:58;;;;;;;16.70;14.90;;;20.50;84.70;;;;;;5015002;28;20413;-70
2022/05/04 10:14:29;;;;;;;21.43;14.90;;;20.60;86.60;;;;;;5014994;28;20421;-70
2022/05/04 10:17:11;;;;;;;18.70;14.17;;;20.70;85.00;;;;;;5014626;28;20452;-70
2022/05/04 10:19:54;;;;;;;15.37;13.80;;;20.80;84.80;;;;;;5014005;28;20964;-70
2022/05/04 10:22:27;;;;;;;16.60;14.90;;;20.80;82.40;;;;;;5014649;28;20901;-70
2022/05/04 10:24:56;;;;;;;18.00;16.10;;;20.90;84.30;;;;;;5014966;28;20399;-70
2022/05/04 10:27:25;;;;;;;18.13;16.33;;;21.00;82.50;;;;;;5014771;28;20418;-69
2022/05/04 10:32:51;;;;;;;20.70;18.50;;;20.90;81.70;;;;;;5014072;28;20410;-70
2022/05/04 10:35:35;;;;;;;22.90;18.23;;;20.80;81.00;;;;;;5014577;28;20886;-70
2022/05/04 10:38:01;;;;;;;20.17;18.03;;;20.70;81.80;;;;;;5014974;28;20409;-70
2022/05/04 10:40:35;;;;;;;20.90;18.70;;;20.80;80.50;;;;;;5014416;28;20449;-70
2022/05/04 10:43:05;;;;;;;21.90;19.20;;;20.80;81.00;;;;;;5014027;28;20601;-69
2022/05/04 10:45:33;;;;;;;20.77;18.57;;;20.80;80.70;;;;;;5013730;28;20910;-70
2022/05/04 10:48:18;;;;;;;22.20;19.87;;;20.70;82.00;;;;;;5014159;28;20419;-70
2022/05/04 10:51:03;;;;;;;22.27;19.53;;;20.60;80.60;;;;;;5013447;28;20421;-70
2022/05/04 10:53:29;;;;;;;21.40;19.23;;;20.50;79.80;;;;;;5013323;28;20764;-75
2022/05/04 10:56:01;;;;;;;20.87;17.33;;;20.40;82.30;;;;;;5014070;28;20496;-69
2022/05/04 10:58:30;;;;;;;22.90;20.67;;;20.20;81.70;;;;;;5013403;28;20175;-69
2022/05/04 11:01:14;;;;;;;23.30;19.10;;;20.10;81.30;;;;;;5013318;28;20457;-70
2022/05/04 11:04:11;;;;;;;24.40;21.10;;;19.90;81.20;;;;;;5013295;28;20417;-70
2022/05/04 11:06:58;;;;;;;21.40;19.10;;;19.70;81.90;;;;;;5013267;28;20501;-69
2022/05/04 11:09:32;;;;;;;23.53;20.63;;;19.60;84.80;;;;;;5013530;28;20413;-69
2022/05/04 11:12:02;;;;;;;23.00;20.70;;;19.50;84.60;;;;;;5013934;28;20485;-69
2022/05/04 11:14:29;;;;;;;22.87;20.37;;;19.40;85.80;;;;;;5013628;28;20444;-70
2022/05/04 11:16:57;;;;;;;24.97;22.40;;;19.30;84.30;;;;;;5013457;28;20484;-69
2022/05/04 11:19:25;;;;;;;22.77;20.53;;;19.30;84.70;;;;;;5013738;28;20453;-69
2022/05/04 11:21:50;;;;;;;24.43;22.07;;;19.20;85.60;;;;;;5013174;28;20714;-69
2022/05/04 11:24:16;;;;;;;21.90;19.70;;;19.20;88.00;;;;;;5013635;28;20425;-69
2022/05/04 11:26:43;;;;;;;22.93;20.47;;;19.20;87.10;;;;;;5012971;28;20240;-69
2022/05/04 11:29:12;;;;;;;26.07;22.10;;;19.30;86.50;;;;;;5013688;28;20430;-69
2022/05/04 11:31:46;;;;;;;25.60;22.00;;;19.20;86.40;;;;;;5013099;28;20465;-70
2022/05/04 11:34:16;;;;;;;22.60;20.20;;;19.20;87.90;;;;;;5013592;28;20401;-70
2022/05/04 11:36:45;;;;;;;24.33;21.80;;;19.20;88.60;;;;;;5012967;28;20460;-69
2022/05/04 11:39:14;;;;;;;23.07;20.60;;;19.20;88.30;;;;;;5013382;28;20425;-69
2022/05/04 11:41:39;;;;;;;25.30;22.40;;;19.20;90.40;;;;;;5012841;28;20429;-69
2022/05/04 11:44:05;;;;;;;23.97;21.47;;;19.30;89.80;;;;;;5013126;28;20505;-69
2022/05/04 11:46:31;;;;;;;25.03;22.47;;;19.50;87.60;;;;;;5013322;28;20234;-69
2022/05/04 11:48:58;;;;;;;25.50;23.00;;;19.60;88.10;;;;;;5013058;28;20465;-69
2022/05/04 11:51:24;;;;;;;28.67;25.00;;;19.80;87.80;;;;;;5013302;28;20171;-69
2022/05/04 11:53:49;;;;;;;27.40;24.60;;;20.00;86.40;;;;;;5012485;28;20429;-69
2022/05/04 11:56:15;;;;;;;30.13;27.13;;;20.10;86.40;;;;;;5012883;28;20612;-69
2022/05/04 11:58:42;;;;;;;28.03;25.03;;;20.20;84.40;;;;;;5012544;28;20217;-69
2022/05/04 12:01:08;;;;;;;28.90;26.00;;;20.20;84.20;;;;;;5013064;28;20249;-69
2022/05/04 12:03:38;;;;;;;28.73;24.80;;;20.40;83.40;;;;;;5012491;28;20887;-70
2022/05/04 12:06:09;;;;;;;28.67;25.57;;;20.50;82.70;;;;;;5012523;28;20822;-70
2022/05/04 12:08:36;;;;;;;27.17;24.33;;;20.60;83.90;;;;;;5012565;28;20440;-75
2022/05/04 12:11:03;;;;;;;24.57;22.10;;;20.80;85.10;;;;;;5011499;28;20434;-69
2022/05/04 12:13:29;;;;;;;27.20;24.60;;;20.90;84.10;;;;;;5013040;28;20422;-69
2022/05/04 12:15:56;;;;;;;28.57;25.87;;;21.00;81.10;;;;;;5012406;28;20490;-69
2022/05/04 12:18:28;;;;;;;29.83;26.70;;;21.10;82.20;;;;;;5011265;28;20700;-69
2022/05/04 12:20:54;;;;;;;28.77;25.90;;;21.20;81.60;;;;;;5012027;28;20735;-69
2022/05/04 12:23:20;;;;;;;30.13;25.70;;;21.10;77.80;;;;;;5012882;28;20410;-69
2022/05/04 12:25:46;;;;;;;31.17;28.03;;;21.00;77.70;;;;;;5012200;28;20938;-69
2022/05/04 12:28:12;;;;;;;31.13;28.03;;;20.90;78.50;;;;;;5012782;28;20632;-69
2022/05/04 12:33:37;;;;;;;32.13;27.87;;;20.70;81.80;;;;;;5012407;28;20402;-71
2022/05/04 12:36:08;;;;;;;31.23;28.13;;;20.60;79.20;;;;;;5012628;28;20743;-71
2022/05/04 12:38:36;;;;;;;28.80;25.90;;;20.40;78.90;;;;;;5013030;28;20399;-71
2022/05/04 12:41:04;;;;;;;28.53;25.63;;;20.20;77.00;;;;;;5012644;28;20471;-71
2022/05/04 12:43:37;;;;;;;27.47;24.67;;;20.20;80.80;;;;;;5012655;28;20410;-71
2022/05/04 12:46:11;;;;;;;28.77;26.00;;;20.30;81.80;;;;;;5012729;28;20426;-71
2022/05/04 12:48:39;;;;;;;28.50;25.53;;;20.40;82.00;;;;;;5011928;28;20795;-71
2022/05/04 12:51:09;;;;;;;25.97;23.53;;;20.60;82.60;;;;;;5012820;28;20910;-71
2022/05/04 12:53:39;;;;;;;26.97;24.37;;;20.70;80.50;;;;;;5012464;28;20776;-71
2022/05/04 12:58:53;;;;;;;27.20;24.70;;;20.80;77.90;;;;;;5011979;28;20403;-71
2022/05/04 13:01:26;;;;;;;28.27;25.37;;;20.80;77.20;;;;;;5012571;28;20803;-71
2022/05/04 13:03:52;;;;;;;26.17;23.50;;;20.90;79.10;;;;;;5011848;28;20409;-71
2022/05/04 13:06:21;;;;;;;23.67;21.60;;;21.10;78.60;;;;;;5012859;28;20432;-71
2022/05/04 13:08:48;;;;;;;24.80;22.40;;;21.10;76.70;;;;;;5015682;28;20406;-71
2022/05/04 13:11:19;;;;;;;22.27;20.17;;;21.10;73.60;;;;;;5016303;28;20926;-71